39  °F
Temperature
4  °C
Temperature
-3  °C
 Dewpoint
27  °F
  Dewpoint
61  %
 Humidity
  Temperature
5  mph
Wind Speed
4  kts
Wind Speed
8  km/h
Wind Speed
2.2  m/s
Wind Speed
130°
South East

Wind Speed
Clear
Conditions
Pressure 29.94 (inHG) - 1013.92 (mb)
Visibility 10.0 (mi) - 16.1 (km)

Sky Conditions
KAPA
Location Centennial 2 mi (3.22 km)
Metar :KAPA 240853Z 13004KT 10SM CLR 04/M03 A2994 RMK AO2 SLP134 T00441028 58014
Fri 24th May 02:53 am

Nearest Airport
https://www.checkwx.com/weather/KAPA
  Metar Aviation API Data Provided by https://www.checkwx.com/ Original CSS/SVG/PHP scripts by weather34.com © 2015-2019